Time;durP1;ratioP1;P1;durP2;ratioP2;P2;SDS_P1;SDS_P2;PMS_P1;PMS_P2;Temp;Humidity;BMP_temperature;BMP_pressure;BME280_temperature;BME280_humidity;BME280_pressure;Samples;Min_cycle;Max_cycle;Signal;HPM_P1;HPM_P2
2023/04/18 00:00:48;;;;;;;4.20;2.90;;;7.60;99.90;;;;;;5033993;28;21025;-52
2023/04/18 00:03:15;;;;;;;2.77;2.57;;;7.50;99.90;;;;;;5033106;28;20503;-51
2023/04/18 00:05:42;;;;;;;3.27;2.70;;;7.60;99.90;;;;;;5037937;28;20813;-54
2023/04/18 00:08:10;;;;;;;2.80;2.50;;;7.60;99.90;;;;;;5051487;28;20501;-51
2023/04/18 00:10:37;;;;;;;3.00;2.60;;;7.70;99.90;;;;;;5053033;28;20449;-53
2023/04/18 00:13:05;;;;;;;3.97;3.57;;;7.70;99.90;;;;;;5052932;28;20437;-54
2023/04/18 00:15:34;;;;;;;3.37;3.07;;;7.70;99.90;;;;;;5036333;28;20505;-53
2023/04/18 00:18:04;;;;;;;6.10;3.53;;;7.70;99.90;;;;;;5034860;28;20843;-52
2023/04/18 00:20:31;;;;;;;3.70;3.37;;;7.60;99.90;;;;;;5036868;28;20481;-51
2023/04/18 00:22:59;;;;;;;3.40;3.10;;;7.50;99.90;;;;;;5041198;28;20875;-52
2023/04/18 00:25:26;;;;;;;3.27;2.97;;;7.50;99.90;;;;;;5038335;28;20456;-51
2023/04/18 00:27:53;;;;;;;3.07;2.80;;;7.30;99.90;;;;;;5034133;28;20576;-53
2023/04/18 00:30:21;;;;;;;3.90;3.17;;;7.30;99.90;;;;;;5034051;28;20481;-54
2023/04/18 00:32:48;;;;;;;3.30;3.00;;;7.40;99.90;;;;;;5034555;28;20976;-52
2023/04/18 00:35:15;;;;;;;2.90;2.60;;;7.50;99.90;;;;;;5054267;28;20473;-51
2023/04/18 00:37:42;;;;;;;4.67;3.20;;;7.60;99.90;;;;;;5038375;28;20863;-54
2023/04/18 00:40:10;;;;;;;4.00;3.20;;;7.70;99.90;;;;;;5047387;28;20477;-51
2023/04/18 00:42:37;;;;;;;3.30;2.90;;;7.70;99.90;;;;;;5040487;28;20529;-53
2023/04/18 00:45:05;;;;;;;3.33;2.73;;;7.70;99.90;;;;;;5033919;28;20881;-51
2023/04/18 00:47:34;;;;;;;3.93;3.13;;;7.70;99.90;;;;;;5034066;28;20469;-52
2023/04/18 00:50:01;;;;;;;2.83;2.60;;;7.70;99.90;;;;;;5033920;28;20941;-52
2023/04/18 00:52:28;;;;;;;3.33;2.87;;;7.70;99.90;;;;;;5034260;28;20496;-53
2023/04/18 00:54:55;;;;;;;3.10;2.60;;;7.70;99.90;;;;;;5034337;28;21117;-52
2023/04/18 00:57:22;;;;;;;3.60;3.30;;;7.70;99.90;;;;;;5037964;28;20568;-52
2023/04/18 00:59:49;;;;;;;5.07;3.30;;;7.70;99.90;;;;;;5053940;28;20527;-54
2023/04/18 01:02:17;;;;;;;3.57;3.27;;;7.70;99.90;;;;;;5054164;28;20883;-52
2023/04/18 01:04:46;;;;;;;4.37;3.37;;;7.70;99.90;;;;;;5034285;28;20442;-54
2023/04/18 01:07:13;;;;;;;4.13;3.40;;;7.60;99.90;;;;;;5033209;28;20531;-53
2023/04/18 01:09:40;;;;;;;3.23;2.73;;;7.50;99.90;;;;;;5033705;28;20466;-53
2023/04/18 01:12:07;;;;;;;3.03;2.73;;;7.40;99.90;;;;;;5041466;28;20493;-53
2023/04/18 01:14:34;;;;;;;3.27;2.60;;;7.50;99.90;;;;;;5034338;28;20533;-53
2023/04/18 01:17:01;;;;;;;2.73;2.53;;;7.60;99.90;;;;;;5033621;28;21079;-53
2023/04/18 01:19:28;;;;;;;5.43;3.20;;;7.60;99.90;;;;;;5034307;28;20493;-55
2023/04/18 01:21:57;;;;;;;3.80;3.40;;;7.60;99.90;;;;;;5042263;28;20449;-54
2023/04/18 01:24:28;;;;;;;3.80;2.97;;;7.70;99.90;;;;;;5051427;28;20445;-52
2023/04/18 01:26:56;;;;;;;3.30;3.00;;;7.70;99.90;;;;;;5045146;28;20809;-54
2023/04/18 01:29:23;;;;;;;3.30;2.60;;;7.70;99.90;;;;;;5043326;28;20470;-55
2023/04/18 01:31:50;;;;;;;5.33;3.27;;;7.80;99.90;;;;;;5051243;28;20944;-53
2023/04/18 01:34:17;;;;;;;2.80;2.23;;;7.70;99.90;;;;;;5036139;28;20504;-53
2023/04/18 01:36:45;;;;;;;4.07;2.70;;;7.70;99.90;;;;;;5033075;28;20485;-52
2023/04/18 01:39:13;;;;;;;3.07;2.70;;;7.50;99.90;;;;;;5048935;28;20883;-52
2023/04/18 01:41:42;;;;;;;3.83;3.50;;;7.50;99.90;;;;;;5052725;28;20445;-52
2023/04/18 01:44:09;;;;;;;3.30;3.00;;;7.60;99.90;;;;;;5052738;28;20445;-54
2023/04/18 01:46:35;;;;;;;3.17;2.87;;;7.60;99.90;;;;;;5052897;28;20827;-55
2023/04/18 01:49:03;;;;;;;3.20;2.90;;;7.50;99.90;;;;;;5036740;28;20498;-53
2023/04/18 01:51:30;;;;;;;3.00;2.70;;;7.40;99.90;;;;;;5033396;28;20804;-54
2023/04/18 01:53:57;;;;;;;3.43;2.90;;;7.50;99.90;;;;;;5033852;28;20481;-53
2023/04/18 01:56:24;;;;;;;4.07;3.23;;;7.60;99.90;;;;;;5033271;28;20517;-54
2023/04/18 01:58:52;;;;;;;4.10;3.47;;;7.60;99.90;;;;;;5034956;28;20498;-53
2023/04/18 02:01:19;;;;;;;4.03;3.00;;;7.60;99.90;;;;;;5033561;28;20526;-53
2023/04/18 02:03:46;;;;;;;2.43;2.10;;;7.50;99.90;;;;;;5033626;28;20470;-55
2023/04/18 02:06:13;;;;;;;3.60;3.30;;;7.60;99.90;;;;;;5032669;28;20501;-53
2023/04/18 02:08:40;;;;;;;7.90;5.53;;;7.50;99.90;;;;;;5043466;28;20557;-53
2023/04/18 02:11:07;;;;;;;6.80;3.20;;;7.60;99.90;;;;;;5052746;28;20535;-52
2023/04/18 02:13:34;;;;;;;3.43;3.20;;;7.50;99.90;;;;;;5049164;28;20477;-53
2023/04/18 02:16:02;;;;;;;4.63;2.97;;;7.60;99.90;;;;;;5035113;28;20557;-52
2023/04/18 02:18:33;;;;;;;2.90;2.60;;;7.50;99.90;;;;;;5050793;28;20552;-52
2023/04/18 02:21:00;;;;;;;3.50;3.20;;;7.40;99.90;;;;;;5033226;28;20953;-52
2023/04/18 02:23:27;;;;;;;3.47;3.17;;;7.40;99.90;;;;;;5045281;28;20442;-52
2023/04/18 02:25:54;;;;;;;2.90;2.60;;;7.50;99.90;;;;;;5041337;28;20446;-52
2023/04/18 02:28:21;;;;;;;3.53;3.00;;;7.50;99.90;;;;;;5052860;28;20474;-52
2023/04/18 02:30:48;;;;;;;3.20;2.90;;;7.50;99.90;;;;;;5053096;28;20891;-53
2023/04/18 02:33:16;;;;;;;4.23;2.57;;;7.40;99.90;;;;;;5052815;28;20442;-53
2023/04/18 02:35:43;;;;;;;3.37;2.47;;;7.50;99.90;;;;;;5052472;28;20536;-54
2023/04/18 02:38:10;;;;;;;3.23;2.90;;;7.50;99.90;;;;;;5032778;28;20490;-53
2023/04/18 02:40:37;;;;;;;2.97;2.67;;;7.50;99.90;;;;;;5045136;28;20532;-52
2023/04/18 02:43:04;;;;;;;2.93;2.63;;;7.60;99.90;;;;;;5052466;28;20979;-53
2023/04/18 02:45:31;;;;;;;4.40;2.80;;;7.50;99.90;;;;;;5052892;28;20861;-53
2023/04/18 02:47:58;;;;;;;2.43;2.23;;;7.50;99.90;;;;;;5051401;28;20458;-52
2023/04/18 02:50:27;;;;;;;3.07;2.77;;;7.60;99.90;;;;;;5051929;28;20446;-52
2023/04/18 02:52:55;;;;;;;3.00;2.70;;;7.60;99.90;;;;;;5051807;28;20448;-53
2023/04/18 02:55:23;;;;;;;2.63;2.33;;;7.60;99.90;;;;;;5052073;28;20437;-53
2023/04/18 02:57:50;;;;;;;3.63;2.70;;;7.60;99.90;;;;;;5034062;28;20989;-52
2023/04/18 03:00:17;;;;;;;4.37;2.70;;;7.50;99.90;;;;;;5032579;28;20493;-53
2023/04/18 03:02:44;;;;;;;2.53;2.33;;;7.50;99.90;;;;;;5034262;28;20508;-54
2023/04/18 03:05:11;;;;;;;3.43;3.13;;;7.40;99.90;;;;;;5032295;28;20446;-53
2023/04/18 03:07:39;;;;;;;4.00;2.97;;;7.30;99.90;;;;;;5046737;28;20478;-53
2023/04/18 03:10:07;;;;;;;2.97;2.60;;;7.30;99.90;;;;;;5050524;28;20530;-52
2023/04/18 03:12:34;;;;;;;2.73;2.47;;;7.40;99.90;;;;;;5046193;28;20519;-53
2023/04/18 03:15:01;;;;;;;2.80;2.10;;;7.40;99.90;;;;;;5039182;28;20473;-54
2023/04/18 03:17:28;;;;;;;3.60;2.80;;;7.50;99.90;;;;;;5051953;28;20516;-56
2023/04/18 03:19:55;;;;;;;4.00;2.90;;;7.40;99.90;;;;;;5051038;28;20540;-52
2023/04/18 03:22:22;;;;;;;4.63;3.60;;;7.50;99.90;;;;;;5050769;28;20473;-52
2023/04/18 03:24:50;;;;;;;3.73;3.43;;;7.50;99.90;;;;;;5035636;28;20446;-52
2023/04/18 03:27:17;;;;;;;4.20;2.90;;;7.40;99.90;;;;;;5048154;28;20458;-53
2023/04/18 03:29:44;;;;;;;2.87;2.67;;;7.40;99.90;;;;;;5032097;28;20562;-53
2023/04/18 03:32:11;;;;;;;3.40;3.10;;;7.50;99.90;;;;;;5033145;28;20450;-52
2023/04/18 03:34:38;;;;;;;4.50;3.20;;;7.50;99.90;;;;;;5032474;28;20537;-52
2023/04/18 03:37:05;;;;;;;2.57;2.37;;;7.50;99.90;;;;;;5031859;28;20474;-53
2023/04/18 03:39:32;;;;;;;3.03;2.73;;;7.50;99.90;;;;;;5031904;28;20470;-52
2023/04/18 03:42:00;;;;;;;3.13;2.57;;;7.40;99.90;;;;;;5031497;28;20988;-53
2023/04/18 03:44:27;;;;;;;3.47;2.37;;;7.50;99.90;;;;;;5047095;28;20449;-53
2023/04/18 03:46:56;;;;;;;3.83;2.93;;;7.40;99.90;;;;;;5052098;28;20908;-52
2023/04/18 03:49:23;;;;;;;3.73;2.70;;;7.40;99.90;;;;;;5034708;28;20471;-52
2023/04/18 03:51:50;;;;;;;3.20;2.90;;;7.40;99.90;;;;;;5039924;28;20481;-53
2023/04/18 03:54:17;;;;;;;4.03;3.17;;;7.40;99.90;;;;;;5050347;28;20503;-55
2023/04/18 03:56:45;;;;;;;3.00;2.70;;;7.40;99.90;;;;;;5052618;28;20513;-53
2023/04/18 03:59:14;;;;;;;3.30;3.00;;;7.40;99.90;;;;;;5043198;28;20507;-52
2023/04/18 04:01:41;;;;;;;17.93;5.13;;;7.40;99.90;;;;;;5039214;28;20446;-52
2023/04/18 04:04:10;;;;;;;3.17;2.87;;;7.50;99.90;;;;;;5050900;28;20857;-51
2023/04/18 04:06:37;;;;;;;3.20;2.70;;;7.40;99.90;;;;;;5051169;28;20449;-52
2023/04/18 04:09:04;;;;;;;4.47;3.37;;;7.30;99.90;;;;;;5052047;28;21015;-53
2023/04/18 04:11:31;;;;;;;3.40;3.10;;;7.10;99.90;;;;;;5047383;28;20880;-53
2023/04/18 04:13:58;;;;;;;3.40;3.00;;;7.00;99.90;;;;;;5030332;28;20542;-54
2023/04/18 04:16:27;;;;;;;4.20;3.80;;;7.00;99.90;;;;;;5031131;28;20458;-52
2023/04/18 04:18:54;;;;;;;4.17;3.27;;;6.90;99.90;;;;;;5030851;28;20502;-55
2023/04/18 04:21:21;;;;;;;4.97;3.00;;;7.00;99.90;;;;;;5033187;28;20521;-54
2023/04/18 04:23:48;;;;;;;4.20;3.10;;;7.10;99.90;;;;;;5034600;28;21012;-52
2023/04/18 04:26:15;;;;;;;4.53;3.50;;;7.00;99.90;;;;;;5037369;28;20474;-53
2023/04/18 04:28:45;;;;;;;3.77;3.33;;;6.90;99.90;;;;;;5049644;28;20461;-52
2023/04/18 04:31:12;;;;;;;5.47;3.80;;;7.00;99.90;;;;;;5046391;28;20503;-52
2023/04/18 04:33:41;;;;;;;3.70;3.30;;;6.90;99.90;;;;;;5050614;28;20520;-52
2023/04/18 04:36:08;;;;;;;4.53;3.57;;;7.00;99.90;;;;;;5046812;28;20515;-55
2023/04/18 04:38:37;;;;;;;5.17;4.00;;;7.10;99.90;;;;;;5044714;28;20564;-53
2023/04/18 04:41:05;;;;;;;6.47;3.67;;;7.20;99.90;;;;;;5035280;28;20484;-53
2023/04/18 04:43:32;;;;;;;4.70;4.20;;;7.30;99.90;;;;;;5035600;28;20458;-53
2023/04/18 04:45:59;;;;;;;3.57;3.27;;;7.30;99.90;;;;;;5043292;28;21025;-51
2023/04/18 04:48:26;;;;;;;4.73;3.70;;;7.30;99.90;;;;;;5054519;28;20806;-53
2023/04/18 04:50:56;;;;;;;5.00;4.07;;;7.20;99.90;;;;;;5054312;28;20466;-52
2023/04/18 04:53:24;;;;;;;5.50;4.47;;;7.20;99.90;;;;;;5054651;28;20438;-53
2023/04/18 04:55:51;;;;;;;3.60;2.97;;;7.20;99.90;;;;;;5041184;28;20801;-56
2023/04/18 04:58:18;;;;;;;5.80;5.30;;;7.30;99.90;;;;;;5044394;28;20583;-52
2023/04/18 05:00:46;;;;;;;3.60;3.17;;;7.30;99.90;;;;;;5052380;28;20449;-52
2023/04/18 05:03:12;;;;;;;4.43;3.30;;;7.40;99.90;;;;;;5054947;28;20441;-54
2023/04/18 05:05:40;;;;;;;3.60;2.93;;;7.40;99.90;;;;;;5054126;28;20441;-53
2023/04/18 05:08:08;;;;;;;4.80;3.10;;;7.40;99.90;;;;;;5052152;28;20710;-52
2023/04/18 05:10:36;;;;;;;5.10;3.43;;;7.30;99.90;;;;;;5035061;28;20526;-55
2023/04/18 05:13:03;;;;;;;4.83;3.93;;;7.20;99.90;;;;;;5052302;28;20448;-53
2023/04/18 05:15:31;;;;;;;5.17;4.67;;;7.20;99.90;;;;;;5053352;28;20529;-53
2023/04/18 05:17:58;;;;;;;5.57;3.70;;;7.30;99.90;;;;;;5053750;28;20508;-54
2023/04/18 05:20:25;;;;;;;4.40;3.57;;;7.30;99.90;;;;;;5053521;28;20442;-53
2023/04/18 05:22:52;;;;;;;4.87;4.43;;;7.40;99.90;;;;;;5051763;28;20505;-52
2023/04/18 05:25:20;;;;;;;5.50;4.80;;;7.50;99.90;;;;;;5053960;28;20512;-53
2023/04/18 05:27:47;;;;;;;6.67;4.40;;;7.50;99.90;;;;;;5050592;28;20538;-53
2023/04/18 05:30:14;;;;;;;5.90;4.30;;;7.50;99.90;;;;;;5052480;28;20461;-55
2023/04/18 05:32:41;;;;;;;4.87;4.30;;;7.50;99.90;;;;;;5051924;28;20449;-52
2023/04/18 05:35:09;;;;;;;6.63;3.43;;;7.50;99.90;;;;;;5053919;28;20533;-54
2023/04/18 05:37:36;;;;;;;3.77;3.23;;;7.50;99.90;;;;;;5053544;28;21050;-52
2023/04/18 05:40:05;;;;;;;6.27;4.80;;;7.50;99.90;;;;;;5053866;28;20532;-54
2023/04/18 05:42:33;;;;;;;7.53;6.40;;;7.60;99.90;;;;;;5053328;28;20503;-54
2023/04/18 05:45:00;;;;;;;7.60;5.83;;;7.60;99.90;;;;;;5053311;28;21007;-54
2023/04/18 05:47:29;;;;;;;6.40;5.60;;;7.60;99.90;;;;;;5052164;28;20483;-52
2023/04/18 05:49:56;;;;;;;5.63;5.13;;;7.70;99.90;;;;;;5050947;28;20806;-52
2023/04/18 05:52:24;;;;;;;5.40;4.83;;;7.60;99.90;;;;;;5053460;28;20791;-54
2023/04/18 05:54:51;;;;;;;5.30;4.80;;;7.60;99.90;;;;;;5052868;28;20453;-54
2023/04/18 05:57:18;;;;;;;4.90;4.50;;;7.60;99.90;;;;;;5052989;28;20840;-50
2023/04/18 05:59:46;;;;;;;6.40;4.90;;;7.60;99.90;;;;;;5053113;28;20484;-53
2023/04/18 06:02:13;;;;;;;5.03;4.60;;;7.50;99.90;;;;;;5052473;28;20481;-55
2023/04/18 06:04:41;;;;;;;6.23;5.30;;;7.20;99.90;;;;;;5052585;28;20527;-53
2023/04/18 06:07:08;;;;;;;5.70;5.10;;;7.20;99.90;;;;;;5051987;28;20536;-53
2023/04/18 06:09:35;;;;;;;5.37;4.87;;;7.20;99.90;;;;;;5052599;28;20984;-52
2023/04/18 06:12:02;;;;;;;4.67;4.20;;;7.40;99.90;;;;;;5052031;28;20519;-52
2023/04/18 06:14:29;;;;;;;5.40;4.97;;;7.50;99.90;;;;;;5052116;28;20445;-53
2023/04/18 06:16:58;;;;;;;5.20;4.70;;;7.60;99.90;;;;;;5051764;28;20469;-53
2023/04/18 06:19:25;;;;;;;7.17;6.47;;;7.70;99.90;;;;;;5052445;28;20900;-53
2023/04/18 06:21:53;;;;;;;7.73;6.53;;;7.70;99.90;;;;;;5052323;28;20500;-53
2023/04/18 06:24:20;;;;;;;6.20;5.60;;;7.70;99.90;;;;;;5052531;28;20983;-52
2023/04/18 06:26:47;;;;;;;6.77;5.67;;;7.80;99.90;;;;;;5051893;28;20445;-53
2023/04/18 06:29:14;;;;;;;6.40;5.80;;;7.60;99.90;;;;;;5052579;28;20462;-51
2023/04/18 06:31:44;;;;;;;7.30;6.40;;;7.60;99.90;;;;;;5052047;28;20475;-53
2023/04/18 06:34:12;;;;;;;6.40;5.83;;;7.70;99.90;;;;;;5052001;28;20450;-53
2023/04/18 06:36:39;;;;;;;6.90;5.97;;;7.70;99.90;;;;;;5051737;28;20952;-53
2023/04/18 06:39:06;;;;;;;6.53;5.77;;;7.80;99.90;;;;;;5051720;28;20556;-55
2023/04/18 06:41:33;;;;;;;5.10;4.60;;;7.80;99.90;;;;;;5050976;28;20483;-54
2023/04/18 06:44:00;;;;;;;6.57;5.20;;;7.80;99.90;;;;;;5051460;28;20528;-53
2023/04/18 06:46:27;;;;;;;5.53;4.30;;;7.80;99.90;;;;;;5051145;28;20532;-52
2023/04/18 06:48:54;;;;;;;6.47;4.40;;;7.80;99.90;;;;;;5051972;28;21018;-54
2023/04/18 06:51:22;;;;;;;6.40;5.80;;;7.90;99.90;;;;;;5051990;28;20438;-52
2023/04/18 06:53:51;;;;;;;5.90;5.40;;;7.90;99.90;;;;;;5052332;28;20525;-52
2023/04/18 06:56:19;;;;;;;5.63;4.80;;;7.90;99.90;;;;;;5051475;28;20973;-54
2023/04/18 06:58:46;;;;;;;5.23;4.47;;;7.90;99.90;;;;;;5051430;28;21075;-52
2023/04/18 07:01:13;;;;;;;18.90;16.90;;;7.90;99.90;;;;;;5051473;28;20536;-52
2023/04/18 07:03:40;;;;;;;48.83;30.23;;;7.90;99.90;;;;;;5051705;28;20442;-51
2023/04/18 07:06:07;;;;;;;11.33;8.53;;;7.90;99.90;;;;;;5051474;28;21086;-54
2023/04/18 07:08:36;;;;;;;5.20;4.70;;;7.90;99.90;;;;;;5051315;28;20458;-52
2023/04/18 07:11:03;;;;;;;5.03;3.70;;;8.00;99.90;;;;;;5051129;28;20544;-52
2023/04/18 07:13:30;;;;;;;4.40;4.00;;;7.90;99.90;;;;;;5051223;28;20503;-51
2023/04/18 07:15:57;;;;;;;6.37;3.80;;;7.90;99.90;;;;;;5051390;28;20441;-55
2023/04/18 07:18:24;;;;;;;4.43;3.97;;;8.00;99.90;;;;;;5051299;28;20566;-51
2023/04/18 07:20:51;;;;;;;3.80;3.50;;;7.90;99.90;;;;;;5051117;28;20537;-52
2023/04/18 07:23:17;;;;;;;4.53;3.37;;;7.90;99.90;;;;;;5051071;28;20492;-53
2023/04/18 07:25:46;;;;;;;4.63;4.20;;;7.90;99.90;;;;;;5050874;28;20438;-54
2023/04/18 07:28:13;;;;;;;4.50;4.10;;;7.90;99.90;;;;;;5050755;28;20536;-52
2023/04/18 07:30:39;;;;;;;4.07;3.67;;;8.00;99.90;;;;;;5051156;28;20482;-53
2023/04/18 07:33:06;;;;;;;4.57;4.00;;;8.00;99.90;;;;;;5051017;28;20529;-54
2023/04/18 07:35:33;;;;;;;5.97;3.20;;;8.00;99.90;;;;;;5050910;28;20520;-53
2023/04/18 07:38:00;;;;;;;2.83;2.53;;;8.00;99.90;;;;;;5050739;28;20522;-54
2023/04/18 07:40:27;;;;;;;3.47;2.90;;;8.00;99.90;;;;;;5049981;28;20442;-53
2023/04/18 07:42:56;;;;;;;3.43;3.13;;;8.00;99.90;;;;;;5050985;28;20473;-54
2023/04/18 07:45:22;;;;;;;3.67;3.03;;;8.00;99.90;;;;;;5050111;28;20893;-55
2023/04/18 07:47:49;;;;;;;3.77;3.37;;;8.10;99.90;;;;;;5050807;28;20489;-54
2023/04/18 07:50:16;;;;;;;5.10;3.90;;;8.20;99.90;;;;;;5051279;28;20477;-55
2023/04/18 07:52:46;;;;;;;4.33;3.93;;;8.20;99.90;;;;;;5050460;28;20532;-53
2023/04/18 07:55:13;;;;;;;4.73;4.03;;;8.20;99.90;;;;;;5051977;28;20448;-53
2023/04/18 07:57:42;;;;;;;3.97;3.63;;;8.30;99.90;;;;;;5054452;28;20531;-53
2023/04/18 08:00:12;;;;;;;5.27;3.83;;;8.30;99.90;;;;;;5054835;28;20481;-53
2023/04/18 08:02:40;;;;;;;4.70;4.30;;;8.30;99.90;;;;;;5054191;28;20466;-55
2023/04/18 08:05:08;;;;;;;4.40;3.53;;;8.30;99.90;;;;;;5054464;28;20457;-53
2023/04/18 08:07:35;;;;;;;3.53;3.23;;;8.40;99.90;;;;;;5054145;28;20446;-53
2023/04/18 08:10:03;;;;;;;3.60;3.30;;;8.30;99.90;;;;;;5054616;28;20459;-53
2023/04/18 08:12:29;;;;;;;3.40;2.93;;;8.30;99.90;;;;;;5054247;28;20528;-53
2023/04/18 08:14:56;;;;;;;4.40;3.50;;;8.40;99.90;;;;;;5054416;28;20533;-53
2023/04/18 08:17:25;;;;;;;5.20;4.00;;;8.30;99.90;;;;;;5053950;28;20838;-53
2023/04/18 08:19:51;;;;;;;4.10;3.60;;;8.40;99.90;;;;;;5054059;28;20485;-53
2023/04/18 08:22:18;;;;;;;3.70;3.40;;;8.40;99.90;;;;;;5053879;28;20536;-53
2023/04/18 08:24:46;;;;;;;3.90;3.50;;;8.30;99.90;;;;;;5054713;28;20524;-53
2023/04/18 08:27:13;;;;;;;3.70;3.40;;;8.40;99.90;;;;;;5053823;28;20947;-54
2023/04/18 08:29:40;;;;;;;4.50;3.40;;;8.40;99.90;;;;;;5054120;28;20496;-53
2023/04/18 08:32:07;;;;;;;4.43;3.60;;;8.50;99.90;;;;;;5053934;28;20452;-53
2023/04/18 08:34:36;;;;;;;4.70;3.70;;;8.50;99.90;;;;;;5053760;28;20449;-53
2023/04/18 08:37:04;;;;;;;4.50;3.70;;;8.60;99.90;;;;;;5053771;28;20437;-54
2023/04/18 08:39:31;;;;;;;4.17;3.60;;;8.60;99.90;;;;;;5053681;28;20489;-53
2023/04/18 08:42:00;;;;;;;3.60;3.30;;;8.60;99.90;;;;;;5053231;28;20473;-53
2023/04/18 08:44:28;;;;;;;4.10;3.70;;;8.70;99.90;;;;;;5052897;28;20468;-54
2023/04/18 08:46:55;;;;;;;3.93;3.50;;;8.70;99.90;;;;;;5053459;28;20450;-53
2023/04/18 08:49:22;;;;;;;7.50;5.20;;;8.70;99.90;;;;;;5053762;28;20497;-54
2023/04/18 08:51:52;;;;;;;4.57;3.77;;;8.70;99.90;;;;;;5053802;28;20446;-54
2023/04/18 08:54:21;;;;;;;3.33;3.00;;;8.80;99.90;;;;;;5053433;28;20442;-53
2023/04/18 08:57:03;;;;;;;4.10;3.50;;;8.80;99.90;;;;;;5053190;28;20477;-55
2023/04/18 08:59:31;;;;;;;4.00;3.47;;;8.80;99.90;;;;;;5053379;28;20481;-51
2023/04/18 09:02:00;;;;;;;4.83;3.70;;;8.80;99.90;;;;;;5053106;28;20441;-54
2023/04/18 09:04:37;;;;;;;4.67;3.97;;;8.80;99.90;;;;;;5053506;28;20445;-54
2023/04/18 09:07:07;;;;;;;6.30;4.10;;;8.90;99.90;;;;;;5052597;28;20952;-52
2023/04/18 09:09:48;;;;;;;3.73;3.40;;;8.90;99.90;;;;;;5053433;28;20500;-50
2023/04/18 09:12:18;;;;;;;4.00;3.67;;;9.00;99.90;;;;;;5052966;28;20489;-53
2023/04/18 09:14:47;;;;;;;4.00;3.40;;;9.00;99.90;;;;;;5053613;28;20490;-54
2023/04/18 09:17:17;;;;;;;6.87;4.20;;;9.00;99.90;;;;;;5052820;28;20496;-51
2023/04/18 09:19:49;;;;;;;3.83;3.27;;;8.90;99.90;;;;;;5052778;28;20485;-53
2023/04/18 09:22:17;;;;;;;5.17;4.20;;;8.90;99.90;;;;;;5052855;28;20496;-53
2023/04/18 09:24:54;;;;;;;6.07;4.30;;;9.00;99.90;;;;;;5052975;28;20448;-53
2023/04/18 09:27:22;;;;;;;5.37;4.03;;;9.00;99.90;;;;;;5053186;28;20441;-55
2023/04/18 09:29:50;;;;;;;4.13;3.70;;;9.10;99.90;;;;;;5052772;28;20438;-53
2023/04/18 09:32:23;;;;;;;5.33;4.80;;;9.10;99.90;;;;;;5052627;28;20480;-51
2023/04/18 09:34:53;;;;;;;5.00;4.20;;;9.10;99.90;;;;;;5052952;28;20480;-54
2023/04/18 09:37:22;;;;;;;4.90;4.27;;;9.20;99.90;;;;;;5052743;28;20488;-53
2023/04/18 09:39:50;;;;;;;6.80;5.20;;;9.20;99.90;;;;;;5052861;28;20489;-53
2023/04/18 09:42:17;;;;;;;4.47;3.90;;;9.20;99.90;;;;;;5051608;28;20434;-54
2023/04/18 09:45:03;;;;;;;5.90;4.80;;;9.20;99.90;;;;;;5052264;28;20879;-51
2023/04/18 09:47:31;;;;;;;4.13;3.63;;;9.20;99.90;;;;;;5052196;28;20499;-54
2023/04/18 09:49:58;;;;;;;6.13;3.93;;;9.30;99.90;;;;;;5052531;28;20452;-51
2023/04/18 09:52:26;;;;;;;5.40;4.27;;;9.40;99.90;;;;;;5052178;28;20528;-50
2023/04/18 09:54:58;;;;;;;4.13;3.73;;;9.40;99.90;;;;;;5052561;28;20618;-51
2023/04/18 09:57:28;;;;;;;5.43;4.90;;;9.40;99.90;;;;;;5052212;28;20548;-51
2023/04/18 10:00:01;;;;;;;6.90;5.20;;;9.50;99.90;;;;;;5052157;28;20477;-51
2023/04/18 10:02:40;;;;;;;5.77;4.90;;;9.50;99.90;;;;;;5051728;28;20503;-51
2023/04/18 10:05:08;;;;;;;5.30;4.60;;;9.60;99.90;;;;;;5051965;28;20445;-51
2023/04/18 10:07:37;;;;;;;5.57;5.07;;;9.50;99.90;;;;;;5051837;28;20521;-51
2023/04/18 10:10:05;;;;;;;5.40;4.90;;;9.50;99.90;;;;;;5052176;28;20522;-51
2023/04/18 10:12:32;;;;;;;5.37;4.73;;;9.60;99.90;;;;;;5051251;28;20913;-51
2023/04/18 10:15:01;;;;;;;6.60;4.47;;;9.70;99.90;;;;;;5051675;28;20863;-51
2023/04/18 10:17:28;;;;;;;5.23;4.73;;;9.70;99.90;;;;;;5051225;28;20445;-51
2023/04/18 10:20:08;;;;;;;6.10;4.97;;;9.70;99.90;;;;;;5050441;28;20557;-51
2023/04/18 10:22:37;;;;;;;6.13;5.50;;;9.70;99.90;;;;;;5049318;28;20819;-52
2023/04/18 10:25:05;;;;;;;6.80;4.90;;;9.80;99.90;;;;;;5051592;28;20461;-51
2023/04/18 10:27:58;;;;;;;5.90;4.60;;;9.80;99.90;;;;;;5051434;28;20924;-53
2023/04/18 10:31:01;;;;;;;7.07;5.27;;;9.80;99.90;;;;;;5050007;28;20932;-52
2023/04/18 10:33:34;;;;;;;5.27;4.73;;;9.80;99.90;;;;;;5050708;28;20955;-52
2023/04/18 10:36:03;;;;;;;5.67;5.17;;;9.80;99.90;;;;;;5049316;28;20439;-51
2023/04/18 10:38:32;;;;;;;5.47;4.97;;;9.90;99.90;;;;;;5050812;28;20458;-52
2023/04/18 10:41:17;;;;;;;5.83;5.23;;;10.00;99.90;;;;;;5050358;28;20474;-51
2023/04/18 10:44:17;;;;;;;5.10;4.60;;;10.10;99.90;;;;;;5049823;28;20558;-53
2023/04/18 10:47:31;;;;;;;7.27;6.47;;;10.10;99.90;;;;;;5034329;28;20486;-51
2023/04/18 10:50:00;;;;;;;5.90;4.93;;;10.10;99.90;;;;;;5048960;28;20429;-51
2023/04/18 10:52:28;;;;;;;9.07;7.73;;;10.10;99.90;;;;;;5050910;28;20434;-52
2023/04/18 10:55:24;;;;;;;5.90;5.30;;;10.20;99.90;;;;;;5051100;28;20446;-52
2023/04/18 10:57:54;;;;;;;8.57;5.03;;;10.30;99.90;;;;;;5033380;28;20507;-52
2023/04/18 11:00:23;;;;;;;5.70;5.10;;;10.20;99.90;;;;;;5051190;28;21023;-52
2023/04/18 11:02:54;;;;;;;5.40;4.90;;;10.20;99.90;;;;;;5051098;28;20459;-51
2023/04/18 11:05:23;;;;;;;6.33;4.23;;;10.30;99.90;;;;;;5050740;28;20981;-51
2023/04/18 11:07:50;;;;;;;5.37;4.87;;;10.30;99.90;;;;;;5050877;28;20504;-51
2023/04/18 11:10:19;;;;;;;4.50;4.10;;;10.30;99.90;;;;;;5049745;28;20526;-52
2023/04/18 11:12:48;;;;;;;5.00;4.43;;;10.40;99.90;;;;;;5050650;28;20450;-52
2023/04/18 11:15:20;;;;;;;4.70;4.30;;;10.50;99.90;;;;;;5050834;28;20467;-52
2023/04/18 11:17:55;;;;;;;6.00;4.87;;;10.60;99.90;;;;;;5050843;28;20471;-51
2023/04/18 11:20:21;;;;;;;4.90;4.40;;;10.60;99.90;;;;;;5050820;28;20559;-52
2023/04/18 11:22:50;;;;;;;4.37;3.63;;;10.50;99.90;;;;;;5051225;28;20534;-53
2023/04/18 11:25:18;;;;;;;5.93;4.00;;;10.60;99.90;;;;;;5050971;28;20477;-51
2023/04/18 11:27:50;;;;;;;4.27;3.87;;;10.60;99.90;;;;;;5050634;28;20489;-51
2023/04/18 11:30:17;;;;;;;4.50;3.93;;;10.70;99.90;;;;;;5052855;28;20448;-51
2023/04/18 11:32:44;;;;;;;5.57;4.23;;;10.80;99.90;;;;;;5054929;28;20547;-51
2023/04/18 11:35:13;;;;;;;4.07;3.67;;;10.80;99.90;;;;;;5055333;28;20933;-51
2023/04/18 11:37:41;;;;;;;5.93;3.70;;;10.80;99.90;;;;;;5054927;28;20467;-51
2023/04/18 11:40:09;;;;;;;4.63;3.70;;;10.80;99.90;;;;;;5054555;28;20514;-54
2023/04/18 11:42:38;;;;;;;4.27;3.87;;;11.10;99.90;;;;;;5054499;28;20531;-51
2023/04/18 11:45:11;;;;;;;5.30;4.60;;;11.10;99.90;;;;;;5054429;28;20627;-51
2023/04/18 11:47:38;;;;;;;4.30;4.00;;;11.00;99.90;;;;;;5054816;28;20812;-52
2023/04/18 11:50:07;;;;;;;5.57;4.70;;;11.10;99.90;;;;;;5055075;28;20473;-53
2023/04/18 11:52:35;;;;;;;7.00;4.50;;;11.10;99.90;;;;;;5054601;28;20517;-53
2023/04/18 11:55:12;;;;;;;4.00;3.70;;;11.20;99.90;;;;;;5054943;28;20468;-52
2023/04/18 11:57:40;;;;;;;3.53;3.23;;;11.30;99.90;;;;;;5054371;28;20816;-51
2023/04/18 12:00:11;;;;;;;4.27;3.33;;;11.40;99.90;;;;;;5054852;28;20575;-51
2023/04/18 12:02:43;;;;;;;3.87;3.53;;;11.40;99.90;;;;;;5055058;28;20451;-52
2023/04/18 12:05:10;;;;;;;5.57;3.13;;;11.30;99.90;;;;;;5054259;28;20475;-52
2023/04/18 12:07:39;;;;;;;5.90;3.30;;;11.30;99.90;;;;;;5054404;28;20449;-51
2023/04/18 12:10:08;;;;;;;3.37;3.07;;;11.40;99.90;;;;;;5053925;28;20448;-51
2023/04/18 12:12:36;;;;;;;3.73;3.20;;;11.40;99.90;;;;;;5053853;28;20492;-52
2023/04/18 12:15:06;;;;;;;3.57;3.10;;;11.40;99.90;;;;;;5054297;28;20530;-51
2023/04/18 12:17:36;;;;;;;3.40;2.67;;;11.60;99.90;;;;;;5053937;28;20536;-52
2023/04/18 12:20:06;;;;;;;3.47;3.03;;;11.40;99.90;;;;;;5054024;28;20567;-54
2023/04/18 12:22:41;;;;;;;4.70;2.40;;;11.60;99.90;;;;;;5054237;28;20817;-52
2023/04/18 12:25:18;;;;;;;3.60;2.70;;;11.70;99.90;;;;;;5054070;28;20811;-51
2023/04/18 12:27:59;;;;;;;3.33;3.00;;;11.60;99.90;;;;;;5053921;28;20477;-54
2023/04/18 12:30:29;;;;;;;8.40;3.27;;;11.80;99.90;;;;;;5053914;28;20527;-52
2023/04/18 12:32:58;;;;;;;4.60;3.17;;;11.90;99.90;;;;;;5054165;28;20471;-52
2023/04/18 12:35:26;;;;;;;4.00;3.40;;;11.90;99.90;;;;;;5054027;28;20531;-50
2023/04/18 12:37:56;;;;;;;3.63;3.33;;;11.90;99.90;;;;;;5053691;28;21031;-51
2023/04/18 12:40:25;;;;;;;4.00;3.27;;;11.80;99.90;;;;;;5053413;28;20572;-51
2023/04/18 12:42:53;;;;;;;3.97;3.13;;;11.90;99.90;;;;;;5052729;28;20456;-52
2023/04/18 12:45:20;;;;;;;3.90;3.57;;;11.90;99.90;;;;;;5053890;28;20468;-51
2023/04/18 12:47:49;;;;;;;4.03;3.30;;;12.10;99.90;;;;;;5053351;28;20497;-51
2023/04/18 12:50:19;;;;;;;3.33;3.03;;;12.10;99.90;;;;;;5053583;28;20525;-51
2023/04/18 12:52:46;;;;;;;4.37;3.40;;;11.90;99.90;;;;;;5053944;28;20528;-52
2023/04/18 12:55:13;;;;;;;3.87;2.93;;;12.00;99.90;;;;;;5053573;28;20631;-51
2023/04/18 12:57:41;;;;;;;3.40;3.10;;;12.10;99.90;;;;;;5053223;28;20534;-51
2023/04/18 13:00:10;;;;;;;3.20;2.90;;;12.10;99.90;;;;;;5053586;28;20483;-51
2023/04/18 13:02:37;;;;;;;3.90;2.83;;;12.10;99.90;;;;;;5053483;28;20449;-51